MET'MAP v2.0
soon released !

Expected late october,
this new version will be
more efficient, smarter,
and hosted on a brand new
server x3 powerfull...
...and still free !


Not compatible ?
Try the mobile version !

LOG IN : | Subscribe | Disclaimer | Who is Orbifly ? |
ICAO code :

TAF - EIDL Donegal - 29 Oct 2020 14:17 UTC - Data Source NOAA   


- Airport Elevation : 30 ft
- IATA code : CFN
- No reported NOTAMs.


EIDL - Donegal

Latest METAR recorded : 2015/08/11 08:00 EIDL 110800Z 28008KT 9999 FEW027 BKN038 BKN044 13/07 Q1021
TAF TAF EIDL
Valid from the 29 at 12:00 until the 29 at 21:00 UTC


291100Z 2912/2921 20019G29KT 9999 -RA SCT008 BKN018
TEMPO 2912/2916 3000 RA BKN008
BECMG 2913/2915 20023G39KT
PROB30
TEMPO 2916/2921 4000 -RADZ BKN008

Source NOAA


MET'MAP, your aeronautical weather chart ! - Copyright ORBIFLY December 2007

Programming & Development : Alexandra Zaïnal
Co-Developer : Marc-Olivier Méhu
Technical & hardware support : Manuel Goepfert
Concept & Financing : Baudouin d'Aumeries